Portada
METAR-TAF:

METAR-TAF

Aeroports :

Yangon, Myanmar

latitud: 16-46N, longitud: 096-10E, altitud: 14 m

Observació

L'informe es va fer fa 37 minuts, a les 21:30 UTC
Vent 3 kt del Sud
Temperatura 22°C
Humitat 94%
Pressió 1010 hPa
Visibilitat: 6000 m

METAR: VYYY 012130Z 18003KT 6000 NSC 22/21 Q1010 NOSIG

Hora: 04:37 (22:07 UTC)

Pronòstic

L'informe es va fer fa 5 hores i 7 minuts, a les 17:00 UTC
Pronòstic vàlid del 01 a les 18 UTC al 02 a les 18 UTC
Vent 6 kt del Sud
Visibilitat: 7000 m
Evolucionant progressivament
l' 01 a les 22 UTC al 01 a les 24 UTC
Vent 4 kt del Nord/Nord-Oest
Visibilitat: 3000 m
boirina
Evolucionant progressivament
l' 02 a les 00 UTC al 02 a les 02 UTC
Vent 4 kt del Est
Visibilitat: 0600 m
Cel cobert a una alçada de 500 ft
boira
Temporalment
l' 02 a les 02 UTC al 02 a les 06 UTC
Vent 5 kt del Sud/Sud-Est

TAF: VYYY 011700Z 0118/0218 17006KT 7000 NSC BECMG 0122/0124 34004KT 3000 BR BECMG 0200/0202 09004KT 0600 FG OVC005 TEMPO 0202/0206 16005KT

Observacions i pronòstics meteorològics de més de 4000 aeroports (METAR i TAF).

Les estacions disponibles són els punts grocs i vermells al mapa.

Posi el ratolí al punt desitjat per veure el nom de l'estació.

Feu clic per veure les observacions i els pronòstics meteorològics.

Per canviar el mapa: feu clic els botons verds amb una creu de color negre per apropar; al botó verd amb un guió per allunyar la imatge; o en les fletxes verdes per a mapes adjacents.


METAR-TAF: